OCN12W ESSA-EDDH
Flight info
| Callsign | OCN12W |
|---|---|
| Flight time | 1h 12m |
| Altitude | 36000 |
| Route | NOSLI N850 ABAMA DCT GIMRU T503 MICOS N850 BOGMU BOGMU3P |
| Aircraft | A320/M-SDE3FGHIRWY/LB1 |
Departure
| Time | 2026-04-26 19:47 |
|---|---|
| Airport | Stockholm-Arlanda Airport (ESSA) |
Arrival
| Time | 2026-04-26 20:59 |
|---|---|
| Airport | Hamburg Helmut Schmidt Airport (EDDH) |
| Time | Latitude | Longitude | Altitude | Speed | Heading |
|---|---|---|---|---|---|
| 2026-04-26 19:10 | 59.64368 | 17.92805 | 138 ft | 0 kts | 43° |
| 2026-04-26 19:37 | 59.64367 | 17.92802 | 137 ft | 2 kts | 43° |
| 2026-04-26 19:37 | 59.64348 | 17.92766 | 137 ft | 4 kts | 44° |
| 2026-04-26 19:37 | 59.64328 | 17.92730 | 137 ft | 4 kts | 43° |
| 2026-04-26 19:38 | 59.64308 | 17.92694 | 137 ft | 4 kts | 40° |
| 2026-04-26 19:38 | 59.64287 | 17.92662 | 137 ft | 4 kts | 30° |
| 2026-04-26 19:38 | 59.64263 | 17.92642 | 137 ft | 4 kts | 359° |
| 2026-04-26 19:38 | 59.64247 | 17.92653 | 137 ft | 1 kts | 296° |
| 2026-04-26 19:42 | 59.64254 | 17.92626 | 137 ft | 10 kts | 296° |
| 2026-04-26 19:43 | 59.64295 | 17.92462 | 137 ft | 14 kts | 296° |
| 2026-04-26 19:43 | 59.64342 | 17.92281 | 137 ft | 15 kts | 302° |
| 2026-04-26 19:43 | 59.64394 | 17.92096 | 137 ft | 16 kts | 301° |
| 2026-04-26 19:43 | 59.64406 | 17.91893 | 138 ft | 15 kts | 269° |
| 2026-04-26 19:44 | 59.64408 | 17.91854 | 138 ft | 0 kts | 276° |
| 2026-04-26 19:45 | 59.64412 | 17.91777 | 139 ft | 20 kts | 276° |
| 2026-04-26 19:45 | 59.64427 | 17.91631 | 143 ft | 4 kts | 284° |
| 2026-04-26 19:46 | 59.64443 | 17.91607 | 143 ft | 4 kts | 345° |
| 2026-04-26 19:46 | 59.64483 | 17.91598 | 144 ft | 8 kts | 3° |
| 2026-04-26 19:46 | 59.64566 | 17.91625 | 146 ft | 28 kts | 7° |
| 2026-04-26 19:46 | 59.65003 | 17.91782 | 143 ft | 97 kts | 9° |
| 2026-04-26 19:47 | 59.65847 | 17.92089 | 145 ft | 148 kts | 11° |
| 2026-04-26 19:47 | 59.66564 | 17.92347 | 323 ft | 160 kts | 8° |
| 2026-04-26 19:47 | 59.67949 | 17.92914 | 1391 ft | 148 kts | 6° |
| 2026-04-26 19:47 | 59.68961 | 17.92530 | 1791 ft | 163 kts | 326° |
| 2026-04-26 19:48 | 59.69760 | 17.90718 | 2116 ft | 186 kts | 301° |
| 2026-04-26 19:48 | 59.70001 | 17.88120 | 2690 ft | 206 kts | 269° |
| 2026-04-26 19:48 | 59.69725 | 17.85281 | 3398 ft | 213 kts | 263° |
| 2026-04-26 19:48 | 59.69369 | 17.82436 | 4252 ft | 211 kts | 261° |
| 2026-04-26 19:49 | 59.69020 | 17.79620 | 5064 ft | 210 kts | 263° |
| 2026-04-26 19:49 | 59.68655 | 17.76785 | 5739 ft | 219 kts | 259° |
| 2026-04-26 19:49 | 59.68182 | 17.73759 | 6064 ft | 242 kts | 258° |
| 2026-04-26 19:49 | 59.67652 | 17.70441 | 6522 ft | 260 kts | 257° |
| 2026-04-26 19:50 | 59.66864 | 17.67149 | 7242 ft | 273 kts | 237° |
| 2026-04-26 19:50 | 59.65433 | 17.64601 | 8039 ft | 285 kts | 213° |
| 2026-04-26 19:50 | 59.63560 | 17.63182 | 8861 ft | 291 kts | 200° |
| 2026-04-26 19:50 | 59.61614 | 17.62006 | 9703 ft | 294 kts | 200° |
| 2026-04-26 19:51 | 59.59648 | 17.60817 | 10400 ft | 301 kts | 201° |
| 2026-04-26 19:51 | 59.57596 | 17.59565 | 10612 ft | 324 kts | 201° |
| 2026-04-26 19:51 | 59.55348 | 17.58186 | 10914 ft | 341 kts | 201° |
| 2026-04-26 19:51 | 59.53082 | 17.56796 | 11480 ft | 349 kts | 201° |
| 2026-04-26 19:52 | 59.50742 | 17.55338 | 12089 ft | 356 kts | 202° |
| 2026-04-26 19:52 | 59.48373 | 17.53762 | 12686 ft | 362 kts | 204° |
| 2026-04-26 19:52 | 59.45974 | 17.52103 | 13285 ft | 369 kts | 205° |
| 2026-04-26 19:52 | 59.43532 | 17.50390 | 13876 ft | 375 kts | 205° |
| 2026-04-26 19:53 | 59.41052 | 17.48650 | 14402 ft | 381 kts | 205° |
| 2026-04-26 19:53 | 59.38540 | 17.46904 | 14962 ft | 385 kts | 205° |
| 2026-04-26 19:53 | 59.35995 | 17.45153 | 15532 ft | 390 kts | 205° |
| 2026-04-26 19:53 | 59.33421 | 17.43394 | 16113 ft | 394 kts | 205° |
| 2026-04-26 19:54 | 59.30820 | 17.41629 | 16684 ft | 398 kts | 205° |
| 2026-04-26 19:54 | 59.28192 | 17.39855 | 17229 ft | 401 kts | 205° |
| 2026-04-26 19:54 | 59.25540 | 17.38069 | 17797 ft | 405 kts | 205° |
| 2026-04-26 19:54 | 59.22860 | 17.36266 | 18364 ft | 409 kts | 205° |
| 2026-04-26 19:55 | 59.20160 | 17.34448 | 18841 ft | 412 kts | 205° |
| 2026-04-26 19:55 | 59.17429 | 17.32609 | 19322 ft | 416 kts | 205° |
| 2026-04-26 19:55 | 59.14684 | 17.30765 | 19801 ft | 419 kts | 205° |
| 2026-04-26 19:55 | 59.11920 | 17.28911 | 20281 ft | 422 kts | 205° |
| 2026-04-26 19:56 | 59.09161 | 17.26971 | 20750 ft | 421 kts | 211° |
| 2026-04-26 19:56 | 59.06587 | 17.24341 | 21199 ft | 415 kts | 221° |
| 2026-04-26 19:56 | 59.04296 | 17.21013 | 21651 ft | 410 kts | 229° |
| 2026-04-26 19:56 | 59.02136 | 17.17494 | 22072 ft | 412 kts | 229° |
| 2026-04-26 19:57 | 58.99931 | 17.13916 | 22596 ft | 414 kts | 228° |
| 2026-04-26 19:57 | 58.97712 | 17.10337 | 23046 ft | 416 kts | 228° |
| 2026-04-26 19:57 | 58.95474 | 17.06745 | 23503 ft | 419 kts | 228° |
| 2026-04-26 19:57 | 58.93223 | 17.03143 | 23903 ft | 421 kts | 228° |
| 2026-04-26 19:58 | 58.90958 | 16.99520 | 24266 ft | 423 kts | 228° |
| 2026-04-26 19:58 | 58.88680 | 16.95881 | 24628 ft | 426 kts | 228° |
| 2026-04-26 19:58 | 58.86393 | 16.92229 | 24993 ft | 428 kts | 228° |
| 2026-04-26 19:58 | 58.84092 | 16.88558 | 25333 ft | 430 kts | 228° |
| 2026-04-26 19:59 | 58.81777 | 16.84880 | 25680 ft | 432 kts | 228° |
| 2026-04-26 19:59 | 58.79450 | 16.81185 | 26022 ft | 434 kts | 228° |
| 2026-04-26 19:59 | 58.77111 | 16.77473 | 26335 ft | 436 kts | 228° |
| 2026-04-26 19:59 | 58.74765 | 16.73760 | 26695 ft | 438 kts | 228° |
| 2026-04-26 20:00 | 58.72402 | 16.70036 | 27018 ft | 440 kts | 228° |
| 2026-04-26 20:00 | 58.70030 | 16.66303 | 27354 ft | 442 kts | 228° |
| 2026-04-26 20:00 | 58.67641 | 16.62548 | 27666 ft | 445 kts | 228° |
| 2026-04-26 20:00 | 58.65237 | 16.58778 | 27971 ft | 447 kts | 228° |
| 2026-04-26 20:01 | 58.62825 | 16.54998 | 28278 ft | 449 kts | 228° |
| 2026-04-26 20:01 | 58.60397 | 16.51203 | 28590 ft | 451 kts | 228° |
| 2026-04-26 20:01 | 58.57954 | 16.47391 | 28860 ft | 453 kts | 227° |
| 2026-04-26 20:01 | 58.55501 | 16.43576 | 29198 ft | 455 kts | 227° |
| 2026-04-26 20:02 | 58.53042 | 16.39758 | 29484 ft | 456 kts | 227° |
| 2026-04-26 20:02 | 58.50569 | 16.35922 | 29786 ft | 458 kts | 227° |
| 2026-04-26 20:02 | 58.48089 | 16.32078 | 30068 ft | 460 kts | 227° |
| 2026-04-26 20:02 | 58.47281 | 16.30826 | 30160 ft | 461 kts | 227° |
| 2026-04-26 20:03 | 58.43094 | 16.24351 | 30555 ft | 464 kts | 227° |
| 2026-04-26 20:03 | 58.40618 | 16.20528 | 30774 ft | 465 kts | 226° |
| 2026-04-26 20:03 | 58.38097 | 16.16649 | 31021 ft | 467 kts | 226° |
| 2026-04-26 20:03 | 58.35571 | 16.12780 | 31360 ft | 466 kts | 226° |
| 2026-04-26 20:04 | 58.33045 | 16.08920 | 31685 ft | 465 kts | 226° |
| 2026-04-26 20:04 | 58.30526 | 16.05077 | 31963 ft | 464 kts | 226° |
| 2026-04-26 20:04 | 58.28009 | 16.01245 | 32349 ft | 461 kts | 226° |
| 2026-04-26 20:04 | 58.25508 | 15.97441 | 32722 ft | 460 kts | 226° |
| 2026-04-26 20:05 | 58.23854 | 15.94924 | 32944 ft | 459 kts | 226° |
| 2026-04-26 20:05 | 58.21368 | 15.91142 | 33259 ft | 458 kts | 226° |
| 2026-04-26 20:05 | 58.18882 | 15.87362 | 33576 ft | 457 kts | 226° |
| 2026-04-26 20:05 | 58.16403 | 15.83598 | 33882 ft | 457 kts | 226° |
| 2026-04-26 20:06 | 58.13925 | 15.79847 | 34195 ft | 456 kts | 226° |
| 2026-04-26 20:06 | 58.11443 | 15.76106 | 34462 ft | 456 kts | 226° |
| 2026-04-26 20:06 | 58.08964 | 15.72382 | 34708 ft | 455 kts | 226° |
| 2026-04-26 20:06 | 58.06482 | 15.68664 | 34941 ft | 455 kts | 225° |
| 2026-04-26 20:07 | 58.04006 | 15.64961 | 35175 ft | 454 kts | 225° |
| 2026-04-26 20:07 | 58.01530 | 15.61266 | 35422 ft | 453 kts | 225° |
| 2026-04-26 20:07 | 57.99059 | 15.57583 | 35645 ft | 453 kts | 225° |
| 2026-04-26 20:07 | 57.96562 | 15.53947 | 35854 ft | 454 kts | 224° |
| 2026-04-26 20:08 | 57.94032 | 15.50382 | 36055 ft | 455 kts | 223° |
| 2026-04-26 20:08 | 57.91476 | 15.46864 | 36185 ft | 455 kts | 223° |
| 2026-04-26 20:08 | 57.86396 | 15.39973 | 36214 ft | 452 kts | 223° |
| 2026-04-26 20:09 | 57.81316 | 15.33043 | 36221 ft | 450 kts | 223° |
| 2026-04-26 20:09 | 57.76266 | 15.26102 | 36216 ft | 449 kts | 223° |
| 2026-04-26 20:10 | 57.71214 | 15.19186 | 36219 ft | 450 kts | 222° |
| 2026-04-26 20:10 | 57.66161 | 15.12306 | 36230 ft | 449 kts | 222° |
| 2026-04-26 20:11 | 57.61101 | 15.05442 | 36227 ft | 449 kts | 222° |
| 2026-04-26 20:12 | 57.53508 | 14.95191 | 36216 ft | 449 kts | 222° |
| 2026-04-26 20:12 | 57.48441 | 14.88389 | 36227 ft | 449 kts | 222° |
| 2026-04-26 20:13 | 57.43370 | 14.81610 | 36230 ft | 449 kts | 222° |
| 2026-04-26 20:13 | 57.38334 | 14.74888 | 36237 ft | 449 kts | 222° |
| 2026-04-26 20:14 | 57.33262 | 14.68127 | 36215 ft | 449 kts | 222° |
| 2026-04-26 20:14 | 57.28187 | 14.61399 | 36241 ft | 449 kts | 221° |
| 2026-04-26 20:15 | 57.23110 | 14.54715 | 36245 ft | 448 kts | 221° |
| 2026-04-26 20:15 | 57.18037 | 14.48048 | 36239 ft | 447 kts | 221° |
| 2026-04-26 20:16 | 57.12969 | 14.41389 | 36246 ft | 447 kts | 221° |
| 2026-04-26 20:16 | 57.07900 | 14.34749 | 36226 ft | 447 kts | 221° |
| 2026-04-26 20:17 | 57.02820 | 14.28133 | 36241 ft | 447 kts | 221° |
| 2026-04-26 20:17 | 56.97746 | 14.21543 | 36243 ft | 446 kts | 221° |
| 2026-04-26 20:18 | 56.92676 | 14.14977 | 36250 ft | 446 kts | 221° |
| 2026-04-26 20:18 | 56.87635 | 14.08475 | 36264 ft | 446 kts | 221° |
| 2026-04-26 20:19 | 56.82558 | 14.01955 | 36249 ft | 446 kts | 221° |
| 2026-04-26 20:19 | 56.77487 | 13.95460 | 36262 ft | 445 kts | 221° |
| 2026-04-26 20:20 | 56.72416 | 13.88982 | 36279 ft | 445 kts | 221° |
| 2026-04-26 20:20 | 56.67338 | 13.82539 | 36273 ft | 444 kts | 221° |
| 2026-04-26 20:21 | 56.62263 | 13.76110 | 36278 ft | 444 kts | 221° |
| 2026-04-26 20:21 | 56.57199 | 13.69691 | 36267 ft | 444 kts | 221° |
| 2026-04-26 20:22 | 56.52132 | 13.63306 | 36278 ft | 443 kts | 221° |
| 2026-04-26 20:22 | 56.47096 | 13.56985 | 36277 ft | 443 kts | 221° |
| 2026-04-26 20:23 | 56.42035 | 13.50646 | 36278 ft | 443 kts | 221° |
| 2026-04-26 20:23 | 56.36969 | 13.44325 | 36253 ft | 443 kts | 220° |
| 2026-04-26 20:24 | 56.31896 | 13.38043 | 36259 ft | 442 kts | 220° |
| 2026-04-26 20:24 | 56.26829 | 13.31773 | 36267 ft | 442 kts | 220° |
| 2026-04-26 20:25 | 56.21768 | 13.25510 | 36274 ft | 441 kts | 220° |
| 2026-04-26 20:25 | 56.16706 | 13.19269 | 36264 ft | 441 kts | 220° |
| 2026-04-26 20:26 | 56.11644 | 13.13041 | 36246 ft | 441 kts | 220° |
| 2026-04-26 20:26 | 56.06576 | 13.06842 | 36254 ft | 441 kts | 220° |
| 2026-04-26 20:27 | 56.01501 | 13.00670 | 36257 ft | 441 kts | 220° |
| 2026-04-26 20:27 | 55.96428 | 12.94512 | 36260 ft | 441 kts | 220° |
| 2026-04-26 20:28 | 55.91354 | 12.88355 | 36262 ft | 441 kts | 220° |
| 2026-04-26 20:28 | 55.86278 | 12.82224 | 36245 ft | 441 kts | 220° |
| 2026-04-26 20:29 | 55.81229 | 12.76156 | 36251 ft | 441 kts | 220° |
| 2026-04-26 20:29 | 55.76144 | 12.70054 | 36255 ft | 441 kts | 220° |
| 2026-04-26 20:30 | 55.71060 | 12.63967 | 36256 ft | 441 kts | 220° |
| 2026-04-26 20:30 | 55.65971 | 12.57890 | 36248 ft | 441 kts | 220° |
| 2026-04-26 20:31 | 55.60879 | 12.51843 | 36241 ft | 441 kts | 219° |
| 2026-04-26 20:31 | 55.55773 | 12.45821 | 36251 ft | 441 kts | 219° |
| 2026-04-26 20:32 | 55.50671 | 12.39800 | 36256 ft | 441 kts | 219° |
| 2026-04-26 20:32 | 55.45568 | 12.33783 | 36259 ft | 441 kts | 219° |
| 2026-04-26 20:33 | 55.40459 | 12.27784 | 36259 ft | 441 kts | 219° |
| 2026-04-26 20:33 | 55.35346 | 12.21812 | 36253 ft | 441 kts | 219° |
| 2026-04-26 20:34 | 55.30257 | 12.15887 | 36262 ft | 443 kts | 219° |
| 2026-04-26 20:34 | 55.25069 | 12.09845 | 36278 ft | 452 kts | 219° |
| 2026-04-26 20:35 | 55.19766 | 12.03683 | 36271 ft | 462 kts | 219° |
| 2026-04-26 20:35 | 55.14359 | 11.97444 | 36281 ft | 468 kts | 219° |
| 2026-04-26 20:36 | 55.08921 | 11.91208 | 36241 ft | 463 kts | 219° |
| 2026-04-26 20:36 | 55.06258 | 11.88165 | 35983 ft | 452 kts | 219° |
| 2026-04-26 20:36 | 55.03656 | 11.85196 | 35714 ft | 443 kts | 219° |
| 2026-04-26 20:36 | 55.01091 | 11.82270 | 35199 ft | 440 kts | 219° |
| 2026-04-26 20:37 | 54.98541 | 11.79360 | 34678 ft | 437 kts | 219° |
| 2026-04-26 20:37 | 54.96005 | 11.76459 | 34137 ft | 435 kts | 219° |
| 2026-04-26 20:37 | 54.93485 | 11.73575 | 33581 ft | 431 kts | 219° |
| 2026-04-26 20:37 | 54.90994 | 11.70734 | 33077 ft | 426 kts | 219° |
| 2026-04-26 20:38 | 54.88524 | 11.67928 | 32555 ft | 423 kts | 219° |
| 2026-04-26 20:38 | 54.86105 | 11.65183 | 32078 ft | 419 kts | 219° |
| 2026-04-26 20:38 | 54.83674 | 11.62433 | 31587 ft | 416 kts | 219° |
| 2026-04-26 20:38 | 54.81255 | 11.59706 | 31101 ft | 412 kts | 219° |
| 2026-04-26 20:39 | 54.78857 | 11.57009 | 30631 ft | 409 kts | 219° |
| 2026-04-26 20:39 | 54.77250 | 11.55198 | 30306 ft | 407 kts | 219° |
| 2026-04-26 20:39 | 54.74135 | 11.51626 | 29235 ft | 408 kts | 220° |
| 2026-04-26 20:39 | 54.71815 | 11.48779 | 28049 ft | 407 kts | 222° |
| 2026-04-26 20:40 | 54.69559 | 11.45891 | 27188 ft | 400 kts | 223° |
| 2026-04-26 20:40 | 54.67354 | 11.43014 | 26310 ft | 395 kts | 223° |
| 2026-04-26 20:40 | 54.65172 | 11.40164 | 25441 ft | 391 kts | 223° |
| 2026-04-26 20:40 | 54.63002 | 11.37358 | 24613 ft | 389 kts | 222° |
| 2026-04-26 20:41 | 54.60846 | 11.34602 | 23877 ft | 383 kts | 221° |
| 2026-04-26 20:41 | 54.58708 | 11.31886 | 22964 ft | 379 kts | 221° |
| 2026-04-26 20:41 | 54.56591 | 11.29213 | 22110 ft | 375 kts | 221° |
| 2026-04-26 20:41 | 54.54498 | 11.26581 | 21446 ft | 366 kts | 221° |
| 2026-04-26 20:42 | 54.52478 | 11.24048 | 21026 ft | 353 kts | 221° |
| 2026-04-26 20:42 | 54.50529 | 11.21608 | 20594 ft | 340 kts | 222° |
| 2026-04-26 20:42 | 54.48648 | 11.19252 | 20159 ft | 329 kts | 221° |
| 2026-04-26 20:42 | 54.46853 | 11.17002 | 19791 ft | 319 kts | 222° |
| 2026-04-26 20:43 | 54.45085 | 11.14785 | 19408 ft | 313 kts | 222° |
| 2026-04-26 20:43 | 54.43333 | 11.12583 | 19040 ft | 311 kts | 222° |
| 2026-04-26 20:43 | 54.41587 | 11.10395 | 18662 ft | 310 kts | 222° |
| 2026-04-26 20:43 | 54.39841 | 11.08208 | 18258 ft | 311 kts | 222° |
| 2026-04-26 20:44 | 54.38097 | 11.06022 | 17876 ft | 310 kts | 222° |
| 2026-04-26 20:44 | 54.36356 | 11.03844 | 17508 ft | 310 kts | 222° |
| 2026-04-26 20:44 | 54.34613 | 11.01669 | 17132 ft | 310 kts | 222° |
| 2026-04-26 20:44 | 54.32870 | 10.99502 | 16743 ft | 310 kts | 222° |
| 2026-04-26 20:45 | 54.31094 | 10.97285 | 16142 ft | 318 kts | 221° |
| 2026-04-26 20:45 | 54.29313 | 10.95064 | 15816 ft | 316 kts | 221° |
| 2026-04-26 20:45 | 54.27541 | 10.92861 | 15493 ft | 314 kts | 221° |
| 2026-04-26 20:45 | 54.25777 | 10.90673 | 15168 ft | 312 kts | 221° |
| 2026-04-26 20:46 | 54.24020 | 10.88501 | 14831 ft | 311 kts | 221° |
| 2026-04-26 20:46 | 54.22266 | 10.86334 | 14524 ft | 310 kts | 221° |
| 2026-04-26 20:46 | 54.20521 | 10.84179 | 14213 ft | 308 kts | 221° |
| 2026-04-26 20:46 | 54.18807 | 10.82067 | 13888 ft | 307 kts | 221° |
| 2026-04-26 20:47 | 54.17077 | 10.79936 | 13400 ft | 307 kts | 221° |
| 2026-04-26 20:47 | 54.15908 | 10.78499 | 12982 ft | 305 kts | 221° |
| 2026-04-26 20:47 | 54.13637 | 10.75711 | 12205 ft | 302 kts | 220° |
| 2026-04-26 20:47 | 54.11935 | 10.73619 | 11617 ft | 300 kts | 220° |
| 2026-04-26 20:48 | 54.10242 | 10.71538 | 10988 ft | 299 kts | 220° |
| 2026-04-26 20:48 | 54.08553 | 10.69460 | 10333 ft | 299 kts | 220° |
| 2026-04-26 20:48 | 54.06866 | 10.67387 | 9623 ft | 299 kts | 220° |
| 2026-04-26 20:48 | 54.05180 | 10.65323 | 8911 ft | 297 kts | 219° |
| 2026-04-26 20:49 | 54.03507 | 10.63279 | 8219 ft | 295 kts | 219° |
| 2026-04-26 20:49 | 54.01846 | 10.61251 | 7487 ft | 293 kts | 219° |
| 2026-04-26 20:49 | 54.00196 | 10.59239 | 6883 ft | 288 kts | 218° |
| 2026-04-26 20:49 | 53.98606 | 10.57309 | 6498 ft | 274 kts | 218° |
| 2026-04-26 20:50 | 53.97089 | 10.55469 | 6104 ft | 262 kts | 218° |
| 2026-04-26 20:50 | 53.95639 | 10.53706 | 5711 ft | 251 kts | 218° |
| 2026-04-26 20:50 | 53.94243 | 10.52007 | 5327 ft | 244 kts | 218° |
| 2026-04-26 20:50 | 53.92873 | 10.50340 | 5013 ft | 240 kts | 218° |
| 2026-04-26 20:51 | 53.91534 | 10.48712 | 4980 ft | 241 kts | 218° |
| 2026-04-26 20:51 | 53.90171 | 10.47048 | 4856 ft | 241 kts | 218° |
| 2026-04-26 20:51 | 53.88818 | 10.45399 | 4623 ft | 239 kts | 218° |
| 2026-04-26 20:51 | 53.87481 | 10.43777 | 4466 ft | 232 kts | 218° |
| 2026-04-26 20:52 | 53.86187 | 10.42212 | 4336 ft | 227 kts | 218° |
| 2026-04-26 20:52 | 53.84908 | 10.40664 | 4210 ft | 225 kts | 218° |
| 2026-04-26 20:52 | 53.83635 | 10.39126 | 4077 ft | 224 kts | 218° |
| 2026-04-26 20:52 | 53.82381 | 10.37608 | 3947 ft | 217 kts | 219° |
| 2026-04-26 20:53 | 53.81308 | 10.35978 | 3935 ft | 200 kts | 229° |
| 2026-04-26 20:53 | 53.80405 | 10.34251 | 3807 ft | 192 kts | 231° |
| 2026-04-26 20:53 | 53.79561 | 10.32537 | 3664 ft | 186 kts | 232° |
| 2026-04-26 20:53 | 53.78747 | 10.30869 | 3546 ft | 181 kts | 232° |
| 2026-04-26 20:54 | 53.77955 | 10.29245 | 3416 ft | 177 kts | 232° |
| 2026-04-26 20:54 | 53.77187 | 10.27670 | 3310 ft | 170 kts | 232° |
| 2026-04-26 20:54 | 53.76441 | 10.26142 | 3179 ft | 167 kts | 232° |
| 2026-04-26 20:54 | 53.75705 | 10.24633 | 3083 ft | 166 kts | 232° |
| 2026-04-26 20:55 | 53.74971 | 10.23129 | 3007 ft | 166 kts | 232° |
| 2026-04-26 20:55 | 53.74238 | 10.21632 | 3001 ft | 166 kts | 232° |
| 2026-04-26 20:55 | 53.73504 | 10.20131 | 3001 ft | 166 kts | 232° |
| 2026-04-26 20:55 | 53.72768 | 10.18627 | 2891 ft | 166 kts | 232° |
| 2026-04-26 20:56 | 53.72282 | 10.17634 | 2776 ft | 166 kts | 232° |
| 2026-04-26 20:56 | 53.71549 | 10.16137 | 2569 ft | 165 kts | 232° |
| 2026-04-26 20:56 | 53.70818 | 10.14646 | 2364 ft | 165 kts | 232° |
| 2026-04-26 20:56 | 53.70087 | 10.13156 | 2148 ft | 165 kts | 232° |
| 2026-04-26 20:57 | 53.69354 | 10.11663 | 1902 ft | 166 kts | 232° |
| 2026-04-26 20:57 | 53.68618 | 10.10164 | 1672 ft | 166 kts | 233° |
| 2026-04-26 20:57 | 53.67908 | 10.08720 | 1427 ft | 152 kts | 233° |
| 2026-04-26 20:57 | 53.67253 | 10.07388 | 1230 ft | 144 kts | 234° |
| 2026-04-26 20:58 | 53.66618 | 10.06097 | 1038 ft | 142 kts | 233° |
| 2026-04-26 20:58 | 53.65987 | 10.04815 | 837 ft | 142 kts | 233° |
| 2026-04-26 20:58 | 53.65355 | 10.03531 | 648 ft | 142 kts | 233° |
| 2026-04-26 20:58 | 53.64727 | 10.02255 | 446 ft | 141 kts | 232° |
| 2026-04-26 20:59 | 53.64102 | 10.00987 | 259 ft | 140 kts | 232° |
| 2026-04-26 20:59 | 53.63480 | 9.99727 | 66 ft | 138 kts | 231° |
| 2026-04-26 20:59 | 53.62924 | 9.98594 | 49 ft | 111 kts | 229° |
| 2026-04-26 20:59 | 53.62624 | 9.97987 | 48 ft | 24 kts | 229° |
| 2026-04-26 21:00 | 53.62501 | 9.97746 | 44 ft | 21 kts | 222° |
| 2026-04-26 21:00 | 53.62461 | 9.97800 | 45 ft | 5 kts | 118° |
| 2026-04-26 21:00 | 53.62430 | 9.97904 | 50 ft | 15 kts | 77° |
| 2026-04-26 21:00 | 53.62460 | 9.98075 | 49 ft | 15 kts | 60° |
| 2026-04-26 21:01 | 53.62529 | 9.98225 | 50 ft | 17 kts | 51° |
| 2026-04-26 21:01 | 53.62606 | 9.98384 | 50 ft | 18 kts | 51° |
| 2026-04-26 21:01 | 53.62689 | 9.98553 | 50 ft | 19 kts | 50° |
| 2026-04-26 21:01 | 53.62779 | 9.98734 | 50 ft | 21 kts | 50° |
| 2026-04-26 21:02 | 53.62877 | 9.98931 | 50 ft | 23 kts | 50° |
| 2026-04-26 21:02 | 53.62982 | 9.99141 | 50 ft | 24 kts | 50° |
| 2026-04-26 21:02 | 53.63086 | 9.99375 | 50 ft | 26 kts | 54° |
| 2026-04-26 21:02 | 53.63198 | 9.99622 | 50 ft | 27 kts | 50° |
| 2026-04-26 21:03 | 53.63328 | 9.99856 | 50 ft | 28 kts | 50° |
| 2026-04-26 21:03 | 53.63438 | 10.00084 | 50 ft | 12 kts | 49° |
| 2026-04-26 21:03 | 53.63423 | 10.00166 | 51 ft | 7 kts | 137° |
| 2026-04-26 21:03 | 53.63409 | 10.00231 | 51 ft | 5 kts | 89° |
| 2026-04-26 21:04 | 53.63413 | 10.00288 | 51 ft | 4 kts | 84° |
| 2026-04-26 21:04 | 53.63415 | 10.00329 | 51 ft | 2 kts | 85° |
| 2026-04-26 21:04 | 53.63415 | 10.00338 | 51 ft | 0 kts | 85° |
| 2026-04-26 21:04 | 53.63415 | 10.00340 | 51 ft | 0 kts | 85° |